Time;durP1;ratioP1;P1;durP2;ratioP2;P2;SDS_P1;SDS_P2;PMS_P1;PMS_P2;Temp;Humidity;BMP_temperature;BMP_pressure;BME280_temperature;BME280_humidity;BME280_pressure;Samples;Min_cycle;Max_cycle;Signal;HPM_P1;HPM_P2
2020/12/17 00:01:56;;;;;;;11.27;9.10;;;3.70;99.90;;;;;;4976287;28;20494;-81
2020/12/17 00:04:24;;;;;;;16.67;15.33;;;3.60;99.90;;;;;;4972578;28;20827;-81
2020/12/17 00:06:51;;;;;;;13.77;12.43;;;3.60;99.90;;;;;;4968799;28;20482;-82
2020/12/17 00:09:18;;;;;;;8.63;7.73;;;3.50;99.90;;;;;;4973691;28;20442;-82
2020/12/17 00:11:44;;;;;;;9.37;7.97;;;3.50;99.90;;;;;;4969547;28;20501;-82
2020/12/17 00:14:11;;;;;;;8.00;7.20;;;3.50;99.90;;;;;;4974688;28;21003;-81
2020/12/17 00:16:38;;;;;;;8.60;7.70;;;3.50;99.90;;;;;;4972440;28;20446;-82
2020/12/17 00:19:04;;;;;;;8.77;7.33;;;3.50;99.90;;;;;;4966044;28;20446;-81
2020/12/17 00:21:32;;;;;;;9.77;8.67;;;3.50;99.90;;;;;;4990403;28;20442;-81
2020/12/17 00:23:58;;;;;;;9.23;8.33;;;3.40;99.90;;;;;;4973446;28;20443;-81
2020/12/17 00:26:25;;;;;;;9.97;9.03;;;3.40;99.90;;;;;;4965674;28;20504;-81
2020/12/17 00:28:52;;;;;;;9.50;8.50;;;3.40;99.90;;;;;;4969843;28;20454;-81
2020/12/17 00:31:18;;;;;;;9.53;7.73;;;3.40;99.90;;;;;;4965938;28;20461;-81
2020/12/17 00:33:44;;;;;;;12.13;10.93;;;3.40;99.90;;;;;;4967381;28;20444;-81
2020/12/17 00:36:11;;;;;;;16.27;14.87;;;3.40;99.90;;;;;;5009424;23;20535;-79
2020/12/17 00:38:38;;;;;;;15.27;14.03;;;3.40;99.90;;;;;;4991710;28;20897;-79
2020/12/17 00:41:04;;;;;;;18.30;16.90;;;3.40;99.90;;;;;;4991008;28;20521;-79
2020/12/17 00:43:30;;;;;;;17.13;15.63;;;3.30;99.90;;;;;;4992360;28;20490;-79
2020/12/17 00:45:57;;;;;;;10.60;9.03;;;3.30;99.90;;;;;;4986849;28;20897;-79
2020/12/17 00:48:23;;;;;;;11.97;9.20;;;3.30;99.90;;;;;;4984070;28;20482;-79
2020/12/17 00:50:49;;;;;;;12.57;8.43;;;3.30;99.90;;;;;;4982800;28;20452;-79
2020/12/17 00:53:15;;;;;;;8.93;7.93;;;3.30;99.90;;;;;;4983352;28;20492;-79
2020/12/17 00:55:43;;;;;;;9.53;8.60;;;3.20;99.90;;;;;;4983926;28;20567;-79
2020/12/17 00:58:09;;;;;;;8.60;7.70;;;3.30;99.90;;;;;;4983649;28;20460;-78
2020/12/17 01:00:35;;;;;;;8.77;7.87;;;3.20;99.90;;;;;;4983005;28;20475;-78
2020/12/17 01:03:01;;;;;;;8.00;7.30;;;3.20;99.90;;;;;;4983608;28;20468;-79
2020/12/17 01:05:27;;;;;;;9.77;8.67;;;3.10;99.90;;;;;;4977289;28;20503;-79
2020/12/17 01:07:54;;;;;;;8.73;7.83;;;3.10;99.90;;;;;;4978278;28;21003;-79
2020/12/17 01:10:20;;;;;;;8.33;7.23;;;3.00;99.90;;;;;;4983516;28;20462;-78
2020/12/17 01:12:47;;;;;;;8.33;7.53;;;3.00;99.90;;;;;;4982780;28;20461;-78
2020/12/17 01:15:13;;;;;;;15.40;14.10;;;3.00;99.90;;;;;;4982753;28;20515;-78
2020/12/17 01:17:40;;;;;;;8.60;7.60;;;2.90;99.90;;;;;;4976676;28;20488;-78
2020/12/17 01:20:06;;;;;;;9.70;7.63;;;2.80;99.90;;;;;;4984230;28;20956;-79
2020/12/17 01:22:32;;;;;;;8.17;7.33;;;2.80;99.90;;;;;;4971927;28;20479;-79
2020/12/17 01:24:58;;;;;;;7.93;6.93;;;2.80;99.90;;;;;;4977889;28;20508;-78
2020/12/17 01:27:29;;;;;;;8.83;7.43;;;2.70;99.90;;;;;;4985161;28;20450;-78
2020/12/17 01:29:56;;;;;;;9.27;8.37;;;2.60;99.90;;;;;;4980156;28;20495;-78
2020/12/17 01:32:22;;;;;;;16.60;15.40;;;2.60;99.90;;;;;;4984307;28;21002;-78
2020/12/17 01:34:49;;;;;;;7.60;6.80;;;2.50;99.90;;;;;;4983305;28;20513;-78
2020/12/17 01:37:15;;;;;;;14.60;13.50;;;2.40;99.90;;;;;;5001818;28;20476;-78
2020/12/17 01:39:41;;;;;;;21.03;19.63;;;2.40;99.90;;;;;;4999697;28;20979;-78
2020/12/17 01:42:08;;;;;;;14.73;13.53;;;2.40;99.90;;;;;;5003112;28;20513;-78
2020/12/17 01:44:39;;;;;;;10.80;9.10;;;2.30;99.90;;;;;;5000197;28;20874;-79
2020/12/17 01:47:07;;;;;;;10.60;9.50;;;2.30;99.90;;;;;;4997648;28;20473;-79
2020/12/17 01:49:34;;;;;;;11.00;9.97;;;2.30;99.90;;;;;;5000625;28;20476;-78
2020/12/17 01:52:00;;;;;;;12.87;11.67;;;2.30;99.90;;;;;;4999924;28;20449;-78
2020/12/17 01:54:27;;;;;;;15.63;14.33;;;2.30;99.90;;;;;;4994034;28;20523;-78
2020/12/17 01:56:59;;;;;;;12.53;11.47;;;2.30;99.90;;;;;;4999369;28;20443;-78
2020/12/17 01:59:26;;;;;;;16.17;14.87;;;2.30;99.90;;;;;;4995756;28;20451;-78
2020/12/17 02:01:53;;;;;;;16.13;14.73;;;2.40;99.90;;;;;;5003258;28;21175;-78
2020/12/17 02:04:22;;;;;;;15.77;14.40;;;2.40;99.90;;;;;;5000843;28;20538;-78
2020/12/17 02:06:49;;;;;;;14.23;13.17;;;2.40;99.90;;;;;;5001497;28;20452;-78
2020/12/17 02:09:17;;;;;;;14.03;12.83;;;2.40;99.90;;;;;;5002649;28;20468;-78
2020/12/17 02:11:51;;;;;;;14.80;13.50;;;2.40;99.90;;;;;;5001895;28;20953;-78
2020/12/17 02:14:18;;;;;;;15.43;14.03;;;2.40;99.90;;;;;;5001929;28;20501;-79
2020/12/17 02:16:44;;;;;;;13.87;12.73;;;2.50;99.90;;;;;;5000004;28;20475;-78
2020/12/17 02:19:11;;;;;;;9.83;8.80;;;2.50;99.90;;;;;;4995460;28;20484;-78
2020/12/17 02:21:38;;;;;;;12.00;10.70;;;2.60;99.90;;;;;;5000134;28;20970;-79
2020/12/17 02:24:05;;;;;;;13.73;9.70;;;2.60;99.90;;;;;;4996140;28;20453;-79
2020/12/17 02:26:32;;;;;;;13.47;9.80;;;2.70;99.90;;;;;;5004167;28;20458;-78
2020/12/17 02:28:58;;;;;;;10.07;8.80;;;2.70;99.90;;;;;;4996608;28;20494;-78
2020/12/17 02:31:25;;;;;;;11.30;10.10;;;2.60;99.90;;;;;;5003671;28;20441;-79
2020/12/17 02:33:51;;;;;;;10.50;9.40;;;2.60;99.90;;;;;;5000693;28;20968;-79
2020/12/17 02:36:17;;;;;;;10.97;9.57;;;2.50;99.90;;;;;;4996324;28;20576;-78
2020/12/17 02:38:44;;;;;;;11.50;9.67;;;2.40;99.90;;;;;;5000460;28;20952;-78
2020/12/17 02:41:10;;;;;;;14.20;12.83;;;2.40;99.90;;;;;;5000041;28;20506;-79
2020/12/17 02:43:37;;;;;;;13.90;12.60;;;2.30;99.90;;;;;;4996359;28;20541;-78
2020/12/17 02:46:04;;;;;;;14.33;12.83;;;2.30;99.90;;;;;;5003762;28;20466;-78
2020/12/17 02:48:30;;;;;;;14.90;13.40;;;2.30;99.90;;;;;;4998824;28;20535;-79
2020/12/17 02:50:56;;;;;;;13.83;12.63;;;2.40;99.90;;;;;;4998718;28;20521;-79
2020/12/17 02:53:23;;;;;;;13.10;11.70;;;2.40;99.90;;;;;;5002624;28;20534;-79
2020/12/17 02:55:49;;;;;;;17.40;15.80;;;2.50;99.90;;;;;;4994334;28;20562;-79
2020/12/17 02:58:15;;;;;;;12.93;11.37;;;2.60;99.90;;;;;;4999817;28;20501;-79
2020/12/17 03:00:42;;;;;;;17.93;16.27;;;2.60;99.90;;;;;;5005832;28;20543;-78
2020/12/17 03:03:09;;;;;;;11.80;9.77;;;2.60;99.90;;;;;;5004647;28;20526;-78
2020/12/17 03:05:35;;;;;;;12.33;10.23;;;2.60;99.90;;;;;;4996468;28;20495;-79
2020/12/17 03:08:01;;;;;;;12.97;9.57;;;2.50;99.90;;;;;;5007988;28;20549;-78
2020/12/17 03:10:28;;;;;;;11.57;10.03;;;2.50;99.90;;;;;;5000504;28;20504;-78
2020/12/17 03:12:54;;;;;;;11.37;9.67;;;2.40;99.90;;;;;;5005996;28;21005;-78
2020/12/17 03:15:20;;;;;;;11.70;10.43;;;2.40;99.90;;;;;;5003658;28;20562;-78
2020/12/17 03:17:47;;;;;;;12.07;10.87;;;2.40;99.90;;;;;;5007007;28;20539;-78
2020/12/17 03:20:13;;;;;;;13.33;11.70;;;2.40;99.90;;;;;;5001500;28;20532;-79
2020/12/17 03:22:40;;;;;;;12.57;11.10;;;2.30;99.90;;;;;;5004739;28;20467;-79
2020/12/17 03:25:09;;;;;;;14.33;13.00;;;2.30;99.90;;;;;;5004809;28;20491;-78
2020/12/17 03:27:36;;;;;;;19.10;17.67;;;2.20;99.90;;;;;;5006343;28;20519;-78
2020/12/17 03:30:04;;;;;;;19.30;17.83;;;2.20;99.90;;;;;;5015043;28;20474;-78
2020/12/17 03:32:30;;;;;;;14.57;13.23;;;2.20;99.90;;;;;;4999273;28;20975;-78
2020/12/17 03:34:57;;;;;;;13.47;12.23;;;2.20;99.90;;;;;;5009408;28;20517;-78
2020/12/17 03:37:24;;;;;;;16.83;15.33;;;2.10;99.90;;;;;;5000134;28;20464;-78
2020/12/17 03:39:50;;;;;;;12.47;11.27;;;2.10;99.90;;;;;;4999490;28;20483;-78
2020/12/17 03:42:17;;;;;;;11.03;8.83;;;2.10;99.90;;;;;;5000817;28;20536;-77
2020/12/17 03:44:43;;;;;;;10.30;9.23;;;2.00;99.90;;;;;;4992490;28;20451;-78
2020/12/17 03:47:10;;;;;;;16.70;15.10;;;2.00;99.90;;;;;;4996386;28;20461;-78
2020/12/17 03:49:36;;;;;;;16.13;14.70;;;2.00;99.90;;;;;;4991923;28;20539;-78
2020/12/17 03:52:03;;;;;;;12.27;9.33;;;2.00;99.90;;;;;;4995532;28;20472;-78
2020/12/17 03:54:29;;;;;;;9.93;8.90;;;2.00;99.90;;;;;;4998550;28;20432;-77
2020/12/17 03:56:56;;;;;;;14.87;13.40;;;1.90;99.90;;;;;;5005937;28;20948;-77
2020/12/17 03:59:22;;;;;;;15.40;14.10;;;1.90;99.90;;;;;;5005762;28;20457;-77
2020/12/17 04:01:48;;;;;;;11.73;9.40;;;1.90;99.90;;;;;;5002019;28;21016;-76
2020/12/17 04:04:15;;;;;;;10.63;9.23;;;1.80;99.90;;;;;;5002997;28;20478;-78
2020/12/17 04:06:41;;;;;;;10.40;9.37;;;1.90;99.90;;;;;;5004827;28;20507;-78
2020/12/17 04:09:08;;;;;;;13.93;12.47;;;1.90;99.90;;;;;;5002693;28;20554;-78
2020/12/17 04:11:34;;;;;;;19.00;17.40;;;1.90;99.90;;;;;;4999917;28;20475;-78
2020/12/17 04:14:00;;;;;;;18.30;16.77;;;1.80;99.90;;;;;;4997574;28;20504;-78
2020/12/17 04:16:27;;;;;;;20.17;18.67;;;1.80;99.90;;;;;;5000804;28;20573;-78
2020/12/17 04:18:53;;;;;;;19.87;18.13;;;1.80;99.90;;;;;;5001558;28;20480;-78
2020/12/17 04:21:19;;;;;;;21.03;19.43;;;1.80;99.90;;;;;;5003927;28;20506;-78
2020/12/17 04:23:45;;;;;;;18.50;17.10;;;1.80;99.90;;;;;;5003280;28;20530;-78
2020/12/17 04:26:13;;;;;;;18.27;16.87;;;1.80;99.90;;;;;;5007303;28;20504;-78
2020/12/17 04:28:39;;;;;;;18.70;17.03;;;1.80;99.90;;;;;;5003562;28;20851;-78
2020/12/17 04:31:06;;;;;;;18.70;17.20;;;1.80;99.90;;;;;;5000887;28;20944;-79
2020/12/17 04:33:32;;;;;;;18.80;17.10;;;1.80;99.90;;;;;;5004746;28;20463;-79
2020/12/17 04:35:58;;;;;;;19.27;17.57;;;1.80;99.90;;;;;;5001821;28;20580;-79
2020/12/17 04:38:26;;;;;;;17.50;16.20;;;1.90;99.90;;;;;;5002968;28;20467;-78
2020/12/17 04:40:52;;;;;;;18.17;16.77;;;1.90;99.90;;;;;;5001791;28;20470;-79
2020/12/17 04:43:19;;;;;;;18.93;17.43;;;1.90;99.90;;;;;;5002976;28;20486;-79
2020/12/17 04:45:46;;;;;;;18.20;16.70;;;1.80;99.90;;;;;;5002901;28;20530;-78
2020/12/17 04:48:17;;;;;;;18.90;17.20;;;1.90;99.90;;;;;;4999592;28;20547;-78
2020/12/17 04:50:44;;;;;;;19.90;18.23;;;1.90;99.90;;;;;;5001283;28;20496;-78
2020/12/17 04:53:14;;;;;;;18.07;16.50;;;1.90;99.90;;;;;;5002330;28;20486;-78
2020/12/17 04:55:41;;;;;;;18.50;17.00;;;2.00;99.90;;;;;;4995280;28;20935;-78
2020/12/17 04:58:09;;;;;;;19.23;17.57;;;2.00;99.90;;;;;;5002543;28;20913;-79
2020/12/17 05:00:40;;;;;;;20.27;18.40;;;1.90;99.90;;;;;;4998309;28;20491;-78
2020/12/17 05:03:12;;;;;;;20.43;18.83;;;1.90;99.90;;;;;;4996616;28;20444;-78
2020/12/17 05:05:39;;;;;;;18.73;17.10;;;1.90;99.90;;;;;;5004341;28;20482;-78
2020/12/17 05:08:05;;;;;;;19.30;17.80;;;1.90;99.90;;;;;;4995570;28;20442;-80
2020/12/17 05:10:32;;;;;;;19.17;17.47;;;1.90;99.90;;;;;;5003732;28;20476;-78
2020/12/17 05:12:58;;;;;;;19.73;18.03;;;1.90;99.90;;;;;;5002385;28;20523;-78
2020/12/17 05:15:25;;;;;;;19.30;17.60;;;1.90;99.90;;;;;;5004042;28;20523;-79
2020/12/17 05:17:53;;;;;;;14.73;13.43;;;1.90;99.90;;;;;;5002193;28;20451;-78
2020/12/17 05:20:19;;;;;;;17.67;16.17;;;1.90;99.90;;;;;;4998939;28;20480;-78
2020/12/17 05:22:46;;;;;;;14.73;13.23;;;1.90;99.90;;;;;;5000520;28;20470;-79
2020/12/17 05:25:14;;;;;;;19.23;17.53;;;1.90;99.90;;;;;;5001234;28;20541;-78
2020/12/17 05:27:42;;;;;;;15.30;13.90;;;1.90;99.90;;;;;;5001179;28;20450;-78
2020/12/17 05:30:08;;;;;;;15.33;14.03;;;2.00;99.90;;;;;;5002457;28;20440;-79
2020/12/17 05:32:34;;;;;;;17.70;15.90;;;2.00;99.90;;;;;;5004895;28;21018;-78
2020/12/17 05:35:03;;;;;;;17.90;10.80;;;2.00;99.90;;;;;;5003294;28;20545;-78
2020/12/17 05:37:30;;;;;;;16.73;11.90;;;2.00;99.90;;;;;;4992010;28;20499;-78
2020/12/17 05:39:59;;;;;;;15.67;11.00;;;2.10;99.90;;;;;;4998279;28;20981;-78
2020/12/17 05:42:27;;;;;;;20.67;18.87;;;2.10;99.90;;;;;;5003425;28;20946;-78
2020/12/17 05:44:53;;;;;;;16.67;12.57;;;2.10;99.90;;;;;;5000599;28;20509;-78
2020/12/17 05:47:19;;;;;;;16.67;12.50;;;2.10;99.90;;;;;;5001143;28;20483;-78
2020/12/17 05:49:46;;;;;;;16.40;12.03;;;2.10;99.90;;;;;;5000314;28;20470;-78
2020/12/17 05:52:15;;;;;;;15.83;12.67;;;2.10;99.90;;;;;;4999245;28;20535;-79
2020/12/17 05:54:43;;;;;;;15.93;12.53;;;2.10;99.90;;;;;;5002736;28;20471;-79
2020/12/17 05:57:11;;;;;;;14.97;12.00;;;2.00;99.90;;;;;;5001366;28;20440;-78
2020/12/17 05:59:38;;;;;;;14.87;11.23;;;2.00;99.90;;;;;;4993436;28;20456;-79
2020/12/17 06:02:25;;;;;;;12.40;11.10;;;1.90;99.90;;;;;;5001834;28;20431;-79
2020/12/17 06:05:03;;;;;;;13.77;11.10;;;1.90;99.90;;;;;;4999975;28;20507;-79
2020/12/17 06:07:34;;;;;;;12.67;10.50;;;1.90;99.90;;;;;;4996564;28;20482;-78
2020/12/17 06:10:06;;;;;;;16.33;11.77;;;1.90;99.90;;;;;;5004354;28;20464;-78
2020/12/17 06:12:34;;;;;;;15.63;11.33;;;2.10;99.90;;;;;;4991988;28;20467;-79
2020/12/17 06:15:03;;;;;;;13.40;10.57;;;2.00;99.90;;;;;;5005708;28;20490;-78
2020/12/17 06:17:37;;;;;;;12.57;10.40;;;2.00;99.90;;;;;;4993333;28;20459;-79
2020/12/17 06:20:05;;;;;;;11.93;10.37;;;2.00;99.90;;;;;;4999996;28;20452;-79
2020/12/17 06:22:32;;;;;;;13.27;10.47;;;2.00;99.90;;;;;;5000908;28;20492;-78
2020/12/17 06:24:59;;;;;;;13.93;12.50;;;2.00;99.90;;;;;;5000148;28;20916;-78
2020/12/17 06:27:29;;;;;;;14.03;12.47;;;2.00;99.90;;;;;;5000835;28;20957;-78
2020/12/17 06:30:04;;;;;;;17.83;16.17;;;1.90;99.90;;;;;;4999002;28;20964;-78
2020/12/17 06:32:33;;;;;;;13.83;12.07;;;1.90;99.90;;;;;;4992071;28;20858;-78
2020/12/17 06:35:21;;;;;;;12.23;11.00;;;2.00;99.90;;;;;;4999283;28;20574;-78
2020/12/17 06:37:49;;;;;;;15.40;10.57;;;2.00;99.90;;;;;;4998353;28;20963;-77
2020/12/17 06:40:25;;;;;;;14.37;11.77;;;2.10;99.90;;;;;;5002553;28;20447;-77
2020/12/17 06:42:52;;;;;;;14.97;11.53;;;2.10;99.90;;;;;;4999689;28;20487;-80
2020/12/17 06:45:26;;;;;;;14.20;12.33;;;2.10;99.90;;;;;;5006372;28;20461;-82
2020/12/17 06:47:52;;;;;;;13.70;10.13;;;2.10;99.90;;;;;;5003811;28;20921;-80
2020/12/17 06:50:27;;;;;;;13.47;10.67;;;2.10;99.90;;;;;;5003529;28;20544;-81
2020/12/17 06:53:09;;;;;;;10.77;9.77;;;2.10;99.90;;;;;;4999586;28;20465;-81
2020/12/17 06:55:44;;;;;;;12.87;10.37;;;2.00;99.90;;;;;;5001207;28;20473;-78
2020/12/17 06:58:20;;;;;;;11.33;9.93;;;2.00;99.90;;;;;;5000407;28;20450;-78
2020/12/17 07:00:47;;;;;;;13.13;10.13;;;2.00;99.90;;;;;;4995915;28;20448;-81
2020/12/17 07:03:45;;;;;;;12.03;10.80;;;2.00;99.90;;;;;;5005424;28;20467;-81
2020/12/17 07:06:13;;;;;;;17.80;13.60;;;2.00;99.90;;;;;;5006012;28;20522;-80
2020/12/17 07:08:41;;;;;;;20.40;14.13;;;2.10;99.90;;;;;;5000787;28;20570;-79
2020/12/17 07:11:27;;;;;;;16.23;12.20;;;2.20;99.90;;;;;;4994130;28;20602;-82
2020/12/17 07:13:55;;;;;;;15.37;12.07;;;2.30;99.90;;;;;;5005225;28;20461;-80
2020/12/17 07:16:23;;;;;;;20.53;14.77;;;2.30;99.90;;;;;;4999755;28;20483;-81
2020/12/17 07:18:49;;;;;;;18.57;13.60;;;2.50;99.90;;;;;;5004387;28;20535;-81
2020/12/17 07:21:25;;;;;;;18.57;13.13;;;2.60;99.90;;;;;;5005834;28;20473;-83
2020/12/17 07:23:53;;;;;;;15.93;12.40;;;2.70;99.90;;;;;;5004578;28;20493;-80
2020/12/17 07:26:19;;;;;;;14.17;11.47;;;2.70;99.90;;;;;;5003319;28;20509;-80
2020/12/17 07:28:52;;;;;;;13.93;10.60;;;2.80;99.90;;;;;;4999583;28;20922;-81
2020/12/17 07:31:24;;;;;;;15.53;11.87;;;2.80;99.90;;;;;;4999515;28;20490;-81
2020/12/17 07:33:50;;;;;;;13.70;11.33;;;2.90;99.90;;;;;;5005850;28;20469;-82
2020/12/17 07:36:17;;;;;;;13.83;11.47;;;2.90;99.90;;;;;;5002080;28;20578;-80
2020/12/17 07:38:44;;;;;;;13.30;10.40;;;2.90;99.90;;;;;;4998552;28;20439;-81
2020/12/17 07:41:25;;;;;;;22.07;20.03;;;2.90;99.90;;;;;;5002333;28;20966;-80
2020/12/17 07:43:52;;;;;;;17.83;16.20;;;2.90;99.90;;;;;;5004072;28;20994;-81
2020/12/17 07:46:33;;;;;;;19.77;18.20;;;2.90;99.90;;;;;;5001888;28;20496;-80
2020/12/17 07:49:02;;;;;;;20.93;19.13;;;2.90;99.90;;;;;;5011458;28;20541;-81
2020/12/17 07:51:31;;;;;;;11.37;9.67;;;3.00;99.90;;;;;;4994097;28;20524;-80
2020/12/17 07:54:02;;;;;;;12.20;10.03;;;3.10;99.90;;;;;;5009002;28;20455;-81
2020/12/17 07:56:30;;;;;;;14.43;10.27;;;3.10;99.90;;;;;;4997769;28;20486;-80
2020/12/17 07:58:57;;;;;;;11.60;9.63;;;3.20;99.90;;;;;;5004610;28;20442;-79
2020/12/17 08:01:23;;;;;;;11.23;9.50;;;3.30;99.90;;;;;;5001323;28;20459;-78
2020/12/17 08:03:51;;;;;;;10.77;9.00;;;3.50;99.90;;;;;;4998313;28;20442;-77
2020/12/17 08:06:19;;;;;;;11.07;8.87;;;3.70;99.90;;;;;;5006057;28;20462;-77
2020/12/17 08:08:46;;;;;;;11.47;10.03;;;4.00;99.90;;;;;;4999738;28;20466;-76
2020/12/17 08:11:13;;;;;;;12.70;9.93;;;4.40;99.90;;;;;;5012418;28;20508;-77
2020/12/17 08:13:40;;;;;;;21.63;19.83;;;4.80;99.90;;;;;;5005368;28;20439;-77
2020/12/17 08:16:07;;;;;;;10.73;9.63;;;5.00;99.90;;;;;;5011720;28;20489;-77
2020/12/17 08:18:35;;;;;;;12.43;11.23;;;5.10;99.90;;;;;;5000693;28;20539;-77
2020/12/17 08:21:06;;;;;;;18.00;16.50;;;5.20;99.90;;;;;;5006898;28;20482;-77
2020/12/17 08:23:34;;;;;;;19.33;17.83;;;5.20;99.90;;;;;;4997953;28;20876;-77
2020/12/17 08:26:01;;;;;;;19.03;17.53;;;5.20;99.90;;;;;;5006587;28;20459;-78
2020/12/17 08:28:32;;;;;;;19.07;17.53;;;5.30;99.90;;;;;;5003571;28;20223;-77
2020/12/17 08:31:08;;;;;;;19.37;17.73;;;5.40;99.90;;;;;;5008333;28;20229;-76
2020/12/17 08:33:36;;;;;;;10.67;9.30;;;5.60;99.90;;;;;;5007063;28;20644;-79
2020/12/17 08:36:05;;;;;;;14.37;12.97;;;5.90;99.90;;;;;;5002101;28;20697;-79
2020/12/17 08:38:32;;;;;;;19.83;18.33;;;6.20;99.90;;;;;;4991078;28;20245;-79
2020/12/17 08:41:01;;;;;;;13.00;11.87;;;6.50;99.90;;;;;;5003397;28;20196;-79
2020/12/17 08:43:32;;;;;;;7.30;6.43;;;6.90;99.90;;;;;;4995914;28;20258;-79
2020/12/17 08:46:00;;;;;;;7.73;6.60;;;7.20;99.90;;;;;;5002647;28;20312;-80
2020/12/17 08:48:31;;;;;;;5.63;5.13;;;7.40;99.90;;;;;;4999680;28;20200;-79
2020/12/17 08:50:58;;;;;;;6.00;5.40;;;7.40;99.90;;;;;;5008504;28;20196;-79
2020/12/17 08:53:27;;;;;;;5.30;4.87;;;7.40;99.90;;;;;;5001771;28;20206;-80
2020/12/17 08:56:02;;;;;;;5.50;5.00;;;7.50;99.90;;;;;;5001341;28;20227;-80
2020/12/17 08:58:28;;;;;;;8.67;7.97;;;7.60;99.90;;;;;;4996638;28;20721;-80
2020/12/17 09:00:55;;;;;;;8.40;7.70;;;7.80;99.90;;;;;;5001811;28;20234;-80
2020/12/17 09:03:25;;;;;;;6.40;5.70;;;7.90;99.90;;;;;;5009075;28;20585;-80
2020/12/17 09:06:03;;;;;;;5.70;5.20;;;8.00;99.90;;;;;;4996096;28;20219;-80
2020/12/17 09:08:30;;;;;;;5.30;4.80;;;8.10;99.90;;;;;;4993903;28;20190;-80
2020/12/17 09:10:57;;;;;;;5.23;4.83;;;8.10;99.90;;;;;;4998304;28;20198;-79
2020/12/17 09:13:23;;;;;;;5.40;4.80;;;8.00;99.90;;;;;;5004989;28;20690;-80
2020/12/17 09:15:58;;;;;;;8.37;7.67;;;8.00;99.90;;;;;;4996871;28;20314;-79
2020/12/17 09:18:27;;;;;;;7.50;6.87;;;7.90;99.90;;;;;;5006034;28;20202;-80
2020/12/17 09:21:12;;;;;;;7.13;6.53;;;7.80;99.90;;;;;;5004360;28;20202;-79
2020/12/17 09:23:39;;;;;;;7.53;7.03;;;7.70;99.90;;;;;;4996871;28;20297;-79
2020/12/17 09:26:15;;;;;;;7.40;6.80;;;7.70;99.90;;;;;;5005096;28;20236;-80
2020/12/17 09:28:49;;;;;;;6.00;5.40;;;7.60;99.90;;;;;;4996534;28;20208;-79
2020/12/17 09:31:25;;;;;;;10.03;9.33;;;7.70;99.90;;;;;;5002891;28;20190;-79
2020/12/17 09:34:02;;;;;;;10.60;9.90;;;7.70;99.90;;;;;;5004012;28;20200;-79
2020/12/17 09:36:30;;;;;;;10.27;9.57;;;7.80;99.90;;;;;;4992902;28;20257;-80
2020/12/17 09:39:00;;;;;;;11.20;10.40;;;7.70;99.90;;;;;;5005180;28;20195;-79
2020/12/17 09:41:27;;;;;;;9.87;9.17;;;7.70;99.90;;;;;;5002466;28;20209;-79
2020/12/17 09:43:54;;;;;;;10.67;9.97;;;7.70;99.90;;;;;;5000343;28;20202;-79
2020/12/17 09:46:20;;;;;;;11.97;11.17;;;7.70;99.90;;;;;;5002646;28;20279;-79
2020/12/17 09:48:47;;;;;;;6.17;5.70;;;7.70;99.90;;;;;;4994400;28;20199;-79
2020/12/17 09:51:13;;;;;;;4.90;4.00;;;7.60;99.90;;;;;;5002405;28;20589;-79
2020/12/17 09:53:42;;;;;;;4.43;4.03;;;7.50;99.90;;;;;;4999956;28;20670;-78
2020/12/17 09:56:10;;;;;;;6.03;4.47;;;7.40;99.90;;;;;;5005698;28;20749;-80
2020/12/17 09:58:37;;;;;;;4.67;3.90;;;7.40;99.90;;;;;;4995164;28;20197;-79
2020/12/17 10:01:04;;;;;;;4.07;3.67;;;7.30;99.90;;;;;;5005545;28;20201;-79
2020/12/17 10:03:31;;;;;;;5.97;5.47;;;7.20;99.90;;;;;;4997086;28;20194;-79
2020/12/17 10:05:57;;;;;;;7.40;6.80;;;7.20;99.90;;;;;;4994477;28;20210;-83
2020/12/17 10:08:24;;;;;;;4.33;3.90;;;7.10;99.90;;;;;;5005783;28;20190;-81
2020/12/17 10:10:51;;;;;;;4.33;3.93;;;7.10;99.90;;;;;;5003436;28;20593;-82
2020/12/17 10:13:18;;;;;;;8.00;7.20;;;7.10;99.90;;;;;;5012611;28;20228;-81
2020/12/17 10:15:45;;;;;;;5.63;5.00;;;7.00;99.90;;;;;;4998843;28;20214;-81
2020/12/17 10:18:11;;;;;;;6.67;6.07;;;7.00;99.90;;;;;;5010137;28;20255;-82
2020/12/17 10:20:37;;;;;;;11.50;10.60;;;6.90;99.90;;;;;;5006815;28;20237;-81
2020/12/17 10:23:04;;;;;;;6.77;5.27;;;7.00;99.90;;;;;;5005443;28;20263;-82
2020/12/17 10:25:30;;;;;;;5.53;4.90;;;6.90;99.90;;;;;;5002739;28;20236;-82
2020/12/17 10:27:58;;;;;;;6.53;5.13;;;6.90;99.90;;;;;;5006567;28;20640;-82
2020/12/17 10:30:25;;;;;;;11.37;10.47;;;6.90;99.90;;;;;;5005970;28;20264;-82
2020/12/17 10:32:51;;;;;;;11.43;8.77;;;6.80;99.90;;;;;;5006236;28;20229;-77
2020/12/17 10:35:18;;;;;;;7.40;6.53;;;6.80;99.90;;;;;;5003947;28;20661;-80
2020/12/17 10:37:44;;;;;;;9.57;7.27;;;6.90;99.90;;;;;;5003734;28;20240;-79
2020/12/17 10:40:12;;;;;;;13.43;12.40;;;6.90;99.90;;;;;;5003168;28;20640;-79
2020/12/17 10:42:40;;;;;;;13.37;12.37;;;7.00;99.90;;;;;;5005475;28;20223;-80
2020/12/17 10:45:08;;;;;;;13.37;12.27;;;7.10;99.90;;;;;;5004199;28;20591;-79
2020/12/17 10:47:35;;;;;;;13.20;12.17;;;7.10;99.90;;;;;;5004830;28;20221;-78
2020/12/17 10:50:02;;;;;;;14.13;12.63;;;7.30;99.90;;;;;;5002294;28;20991;-79
2020/12/17 10:52:29;;;;;;;8.67;7.87;;;7.40;99.90;;;;;;4989296;28;20189;-79
2020/12/17 10:54:55;;;;;;;6.40;5.80;;;7.50;99.90;;;;;;5003104;28;20249;-79
2020/12/17 10:57:21;;;;;;;6.37;5.60;;;7.70;99.90;;;;;;5000507;28;20302;-79
2020/12/17 10:59:48;;;;;;;6.20;4.83;;;7.80;99.90;;;;;;5003595;28;20331;-77
2020/12/17 11:02:15;;;;;;;6.70;5.50;;;7.90;99.90;;;;;;4992222;28;20666;-78
2020/12/17 11:04:42;;;;;;;6.07;4.83;;;8.00;99.90;;;;;;4997943;28;20205;-78
2020/12/17 11:07:08;;;;;;;7.53;5.43;;;8.00;99.90;;;;;;4992869;28;20248;-78
2020/12/17 11:09:34;;;;;;;5.87;5.27;;;8.20;99.90;;;;;;4996991;28;20681;-78
2020/12/17 11:12:00;;;;;;;5.27;4.83;;;8.20;99.90;;;;;;4998239;28;20229;-79
2020/12/17 11:14:27;;;;;;;5.77;5.20;;;8.20;99.90;;;;;;5000667;28;20675;-79
2020/12/17 11:16:53;;;;;;;9.03;8.33;;;8.30;99.90;;;;;;5001345;28;20261;-79
2020/12/17 11:19:20;;;;;;;14.30;13.40;;;8.30;99.90;;;;;;5004771;28;20197;-78
2020/12/17 11:21:47;;;;;;;13.67;12.67;;;8.40;99.90;;;;;;4998017;28;20228;-80
2020/12/17 11:24:13;;;;;;;10.77;9.93;;;8.40;99.90;;;;;;5012126;28;20229;-80
2020/12/17 11:26:43;;;;;;;10.53;8.60;;;8.40;99.90;;;;;;5004270;28;20239;-81
2020/12/17 11:29:10;;;;;;;11.20;10.30;;;8.50;99.90;;;;;;5011457;28;20205;-79
2020/12/17 11:31:36;;;;;;;11.50;10.60;;;8.60;99.90;;;;;;5007668;28;20207;-79
2020/12/17 11:34:03;;;;;;;10.80;10.00;;;8.50;99.90;;;;;;5009071;28;20257;-80
2020/12/17 11:36:30;;;;;;;11.07;10.17;;;8.50;99.90;;;;;;5009382;28;20254;-79
2020/12/17 11:38:56;;;;;;;10.73;9.93;;;8.50;99.90;;;;;;5008133;28;20194;-79
2020/12/17 11:41:23;;;;;;;10.80;10.00;;;8.40;99.90;;;;;;5004328;28;20237;-79
2020/12/17 11:43:49;;;;;;;11.80;10.90;;;8.40;99.90;;;;;;5007782;28;20617;-80
2020/12/17 11:46:18;;;;;;;11.07;10.23;;;8.40;99.90;;;;;;5004535;28;20246;-79
2020/12/17 11:48:44;;;;;;;12.60;11.67;;;8.40;99.90;;;;;;5006936;28;20628;-78
2020/12/17 11:51:13;;;;;;;12.93;12.10;;;8.40;99.90;;;;;;5005786;28;20614;-79
2020/12/17 11:53:40;;;;;;;13.50;12.60;;;8.40;99.90;;;;;;5005999;28;20670;-79
2020/12/17 11:56:06;;;;;;;12.73;11.83;;;8.50;99.90;;;;;;5006698;28;20249;-79
2020/12/17 11:58:33;;;;;;;13.50;12.60;;;8.50;99.90;;;;;;5005017;28;20743;-80
2020/12/17 12:00:59;;;;;;;13.40;12.40;;;8.50;99.90;;;;;;5007234;28;20242;-79
2020/12/17 12:03:25;;;;;;;14.00;12.97;;;8.60;99.90;;;;;;5006428;28;20226;-80
2020/12/17 12:05:51;;;;;;;13.00;12.07;;;8.70;99.90;;;;;;5006282;28;20285;-80
2020/12/17 12:08:18;;;;;;;13.13;12.27;;;8.70;99.90;;;;;;5000273;28;20202;-79
2020/12/17 12:10:45;;;;;;;12.43;11.53;;;8.80;99.90;;;;;;5007393;28;20221;-79
2020/12/17 12:13:11;;;;;;;13.17;12.20;;;8.90;99.90;;;;;;5006720;28;20222;-80
2020/12/17 12:15:38;;;;;;;12.90;11.90;;;9.00;99.90;;;;;;5004054;28;20282;-80
2020/12/17 12:18:04;;;;;;;13.37;12.47;;;9.10;99.90;;;;;;5002876;28;20231;-79
2020/12/17 12:20:30;;;;;;;13.70;12.80;;;9.20;99.90;;;;;;5005721;28;20188;-80
2020/12/17 12:22:58;;;;;;;12.50;11.60;;;9.30;99.90;;;;;;5006121;28;20629;-80
2020/12/17 12:25:24;;;;;;;11.17;10.37;;;9.30;99.90;;;;;;5006403;28;20270;-79
2020/12/17 12:27:52;;;;;;;10.97;10.27;;;9.40;99.90;;;;;;4998259;28;20257;-81
2020/12/17 12:30:18;;;;;;;11.20;10.40;;;9.50;99.90;;;;;;5003968;28;20735;-80
2020/12/17 12:32:44;;;;;;;10.27;9.57;;;9.50;99.90;;;;;;5005672;28;20732;-80
2020/12/17 12:35:11;;;;;;;11.00;10.13;;;9.60;99.90;;;;;;5001933;28;20252;-80
2020/12/17 12:37:37;;;;;;;10.23;9.53;;;9.60;99.90;;;;;;5006354;28;20211;-80
2020/12/17 12:40:04;;;;;;;11.20;10.43;;;9.60;99.90;;;;;;5004260;28;20201;-80
2020/12/17 12:42:30;;;;;;;11.70;10.80;;;9.70;99.90;;;;;;5009774;28;20215;-80
2020/12/17 12:44:57;;;;;;;10.80;10.00;;;9.80;99.90;;;;;;5013266;28;20212;-80
2020/12/17 12:47:26;;;;;;;11.20;10.37;;;9.90;99.90;;;;;;5011932;28;20220;-80